Time;durP1;ratioP1;P1;durP2;ratioP2;P2;SDS_P1;SDS_P2;PMS_P1;PMS_P2;Temp;Humidity;BMP_temperature;BMP_pressure;BME280_temperature;BME280_humidity;BME280_pressure;Samples;Min_cycle;Max_cycle;Signal;HPM_P1;HPM_P2
2022/08/06 00:01:00;;;;;;;4.88;2.05;;;14.00;99.90;;;;;;5110136;22;20346;-64
2022/08/06 00:03:26;;;;;;;2.92;1.67;;;14.00;99.90;;;;;;5071788;28;20406;-65
2022/08/06 00:05:52;;;;;;;7.30;1.75;;;14.00;99.90;;;;;;5071545;28;20086;-65
2022/08/06 00:08:17;;;;;;;2.53;1.42;;;14.00;99.90;;;;;;5052922;28;20037;-65
2022/08/06 00:10:43;;;;;;;3.53;1.83;;;13.90;99.90;;;;;;5070422;28;20545;-65
2022/08/06 00:13:10;;;;;;;4.07;1.63;;;13.90;99.90;;;;;;5071478;28;20051;-64
2022/08/06 00:15:36;;;;;;;5.05;1.52;;;14.00;99.90;;;;;;5071614;28;20045;-64
2022/08/06 00:18:02;;;;;;;2.72;1.52;;;13.90;99.90;;;;;;5071549;28;20052;-65
2022/08/06 00:20:27;;;;;;;4.55;1.55;;;13.90;99.90;;;;;;5071238;28;20083;-65
2022/08/06 00:22:53;;;;;;;3.58;1.92;;;14.00;99.90;;;;;;5071330;28;20043;-65
2022/08/06 00:25:19;;;;;;;2.70;1.52;;;13.90;99.90;;;;;;5071408;28;20082;-65
2022/08/06 00:27:44;;;;;;;6.10;1.65;;;14.00;99.90;;;;;;5071289;28;20029;-65
2022/08/06 00:30:10;;;;;;;4.82;1.90;;;13.90;99.90;;;;;;5071235;28;20040;-64
2022/08/06 00:32:36;;;;;;;3.78;1.58;;;13.90;99.90;;;;;;5071116;28;20512;-65
2022/08/06 00:35:02;;;;;;;4.47;1.75;;;13.80;99.90;;;;;;5071324;28;20044;-65
2022/08/06 00:37:28;;;;;;;4.03;1.75;;;13.80;99.90;;;;;;5073196;28;20043;-65
2022/08/06 00:39:55;;;;;;;3.95;1.60;;;13.80;99.90;;;;;;5074882;28;20080;-65
2022/08/06 00:42:21;;;;;;;5.03;1.90;;;13.80;99.90;;;;;;5074958;28;20039;-65
2022/08/06 00:44:47;;;;;;;2.45;1.42;;;13.80;99.90;;;;;;5075236;28;20040;-65
2022/08/06 00:47:12;;;;;;;4.85;1.80;;;13.70;99.90;;;;;;5074930;28;20045;-65
2022/08/06 00:49:38;;;;;;;7.32;2.60;;;13.80;99.90;;;;;;5073580;28;20068;-65
2022/08/06 00:52:04;;;;;;;4.28;2.55;;;13.70;99.90;;;;;;5074951;28;20033;-64
2022/08/06 00:54:30;;;;;;;5.93;2.22;;;13.70;99.90;;;;;;5074920;28;20048;-65
2022/08/06 00:56:55;;;;;;;4.35;2.05;;;13.70;99.90;;;;;;5073515;28;20043;-65
2022/08/06 00:59:21;;;;;;;6.40;1.60;;;13.70;99.90;;;;;;5073081;28;20051;-65
2022/08/06 01:01:46;;;;;;;4.22;1.63;;;13.70;99.90;;;;;;5074576;28;20414;-64
2022/08/06 01:04:12;;;;;;;3.60;1.52;;;13.80;99.90;;;;;;5074783;28;20083;-65
2022/08/06 01:06:38;;;;;;;3.63;1.42;;;13.70;99.90;;;;;;5074726;28;20081;-65
2022/08/06 01:09:04;;;;;;;6.25;1.85;;;13.90;99.90;;;;;;5074622;28;20045;-65
2022/08/06 01:11:29;;;;;;;3.35;2.05;;;13.80;99.90;;;;;;5074109;28;20040;-65
2022/08/06 01:13:55;;;;;;;3.63;2.00;;;13.80;99.90;;;;;;5074711;28;20067;-65
2022/08/06 01:16:45;;;;;;;3.58;1.45;;;13.90;99.90;;;;;;5074601;28;20086;-65
2022/08/06 01:19:46;;;;;;;2.10;1.27;;;13.90;99.90;;;;;;5074257;28;20048;-64
2022/08/06 01:22:39;;;;;;;4.15;1.42;;;13.80;99.90;;;;;;5074559;28;20048;-65
2022/08/06 01:25:17;;;;;;;4.57;1.45;;;13.80;99.90;;;;;;5073042;28;20036;-65
2022/08/06 01:27:51;;;;;;;5.03;1.88;;;13.80;99.90;;;;;;5074461;28;20040;-65
2022/08/06 01:30:20;;;;;;;3.83;1.40;;;13.80;99.90;;;;;;5073818;28;20071;-65
2022/08/06 01:33:09;;;;;;;3.40;1.25;;;13.70;99.90;;;;;;5074284;28;20047;-65
2022/08/06 01:35:40;;;;;;;2.63;1.20;;;13.80;99.90;;;;;;5074283;28;20044;-65
2022/08/06 01:38:22;;;;;;;6.22;1.40;;;13.80;99.90;;;;;;5074110;28;20482;-65
2022/08/06 01:40:50;;;;;;;3.03;1.50;;;13.70;99.90;;;;;;5073515;28;20033;-65
2022/08/06 01:43:19;;;;;;;3.20;1.67;;;13.70;99.90;;;;;;5074173;28;20044;-64
2022/08/06 01:45:48;;;;;;;2.67;1.23;;;13.70;99.90;;;;;;5072920;28;20047;-65
2022/08/06 01:48:19;;;;;;;4.95;1.52;;;13.70;99.90;;;;;;5073026;28;20040;-65
2022/08/06 01:50:49;;;;;;;4.70;1.52;;;13.60;99.90;;;;;;5073459;28;20059;-65
2022/08/06 01:53:18;;;;;;;3.22;1.38;;;13.70;99.90;;;;;;5073716;28;20041;-65
2022/08/06 01:55:48;;;;;;;2.67;1.40;;;13.60;99.90;;;;;;5073884;28;20045;-65
2022/08/06 01:58:18;;;;;;;1.25;1.15;;;13.50;99.90;;;;;;5073921;28;20079;-65
2022/08/06 02:00:47;;;;;;;3.88;1.40;;;13.50;99.90;;;;;;5073231;28;20037;-65
2022/08/06 02:03:24;;;;;;;6.57;1.70;;;13.60;99.90;;;;;;5073757;28;20045;-65
2022/08/06 02:05:53;;;;;;;4.30;1.70;;;13.60;99.90;;;;;;5073608;28;20044;-65
2022/08/06 02:08:22;;;;;;;4.32;1.30;;;13.60;99.90;;;;;;5073730;28;20111;-65
2022/08/06 02:10:50;;;;;;;3.15;1.27;;;13.40;99.90;;;;;;5073076;28;20502;-65
2022/08/06 02:13:17;;;;;;;2.30;1.17;;;13.50;99.90;;;;;;5073503;28;20119;-65
2022/08/06 02:15:44;;;;;;;3.95;1.38;;;13.60;99.90;;;;;;5073359;28;20068;-65
2022/08/06 02:18:11;;;;;;;2.88;1.20;;;13.50;99.90;;;;;;5073225;28;20123;-65
2022/08/06 02:20:40;;;;;;;2.80;1.30;;;13.60;99.90;;;;;;5073018;28;20040;-65
2022/08/06 02:23:09;;;;;;;3.13;1.13;;;13.60;99.90;;;;;;5073359;28;20049;-65
2022/08/06 02:25:39;;;;;;;3.03;1.13;;;13.50;99.90;;;;;;5073264;28;20028;-65
2022/08/06 02:28:06;;;;;;;5.60;1.38;;;13.60;99.90;;;;;;5073150;28;20050;-65
2022/08/06 02:30:36;;;;;;;3.28;1.45;;;13.60;99.90;;;;;;5072678;28;20409;-65
2022/08/06 02:33:02;;;;;;;1.58;0.80;;;13.60;99.90;;;;;;5073379;28;20036;-65
2022/08/06 02:35:30;;;;;;;2.17;1.17;;;13.60;99.90;;;;;;5073076;28;20121;-65
2022/08/06 02:38:07;;;;;;;2.13;1.10;;;13.50;99.90;;;;;;5072898;28;20059;-65
2022/08/06 02:40:35;;;;;;;2.55;1.05;;;13.50;99.90;;;;;;5072510;28;20044;-66
2022/08/06 02:43:06;;;;;;;1.58;0.90;;;13.50;99.90;;;;;;5072823;28;20044;-65
2022/08/06 02:45:46;;;;;;;1.85;1.10;;;13.50;99.90;;;;;;5072759;28;20048;-65
2022/08/06 02:48:40;;;;;;;3.05;1.25;;;13.40;99.90;;;;;;5072905;28;20375;-65
2022/08/06 02:51:10;;;;;;;3.08;1.23;;;13.30;99.90;;;;;;5072364;28;20072;-65
2022/08/06 02:54:07;;;;;;;3.58;1.10;;;13.40;99.90;;;;;;5072524;28;20098;-65
2022/08/06 02:56:35;;;;;;;3.38;1.52;;;13.20;99.90;;;;;;5048725;28;20052;-65
2022/08/06 02:59:03;;;;;;;3.20;0.98;;;13.20;99.90;;;;;;5072397;28;20040;-65
2022/08/06 03:01:36;;;;;;;3.28;1.40;;;13.30;99.90;;;;;;5071742;28;20059;-65
2022/08/06 03:04:03;;;;;;;2.97;1.30;;;13.30;99.90;;;;;;5072432;28;20068;-65
2022/08/06 03:06:33;;;;;;;1.63;1.00;;;13.30;99.90;;;;;;5072593;28;20402;-65
2022/08/06 03:09:01;;;;;;;4.05;1.30;;;13.20;99.90;;;;;;5072521;28;20044;-65
2022/08/06 03:11:31;;;;;;;2.50;1.35;;;13.20;99.90;;;;;;5072051;28;20051;-65
2022/08/06 03:13:59;;;;;;;4.55;1.42;;;13.20;99.90;;;;;;5072257;28;20123;-65
2022/08/06 03:16:26;;;;;;;3.15;2.10;;;13.20;99.90;;;;;;5072114;28;20041;-65
2022/08/06 03:18:53;;;;;;;3.33;1.60;;;13.20;99.90;;;;;;5072386;28;20589;-65
2022/08/06 03:21:22;;;;;;;2.22;1.50;;;13.20;99.90;;;;;;5071946;28;20052;-65
2022/08/06 03:23:49;;;;;;;1.83;1.25;;;13.20;99.90;;;;;;5072246;28;20081;-65
2022/08/06 03:26:16;;;;;;;2.10;1.73;;;13.10;99.90;;;;;;5072129;28;20059;-65
2022/08/06 03:28:42;;;;;;;2.00;1.80;;;13.10;99.90;;;;;;5071946;28;20410;-65
2022/08/06 03:31:09;;;;;;;4.65;1.63;;;13.10;99.90;;;;;;5071534;28;20036;-65
2022/08/06 03:33:36;;;;;;;4.07;1.65;;;13.20;99.90;;;;;;5072191;28;20125;-65
2022/08/06 03:36:03;;;;;;;3.25;1.85;;;13.00;99.90;;;;;;5072123;28;20059;-65
2022/08/06 03:38:34;;;;;;;2.15;1.58;;;13.10;99.90;;;;;;5071018;28;20156;-65
2022/08/06 03:41:00;;;;;;;4.97;2.10;;;13.00;99.90;;;;;;5071539;28;20043;-65
2022/08/06 03:43:26;;;;;;;2.40;1.83;;;13.10;99.90;;;;;;5071717;28;20036;-65
2022/08/06 03:45:56;;;;;;;3.25;1.83;;;13.00;99.90;;;;;;5071743;28;20036;-65
2022/08/06 03:48:26;;;;;;;5.03;1.95;;;12.90;99.90;;;;;;5071989;28;20040;-65
2022/08/06 03:50:54;;;;;;;4.22;2.30;;;12.90;99.90;;;;;;5071345;28;20498;-67
2022/08/06 03:53:24;;;;;;;5.78;2.25;;;13.00;99.90;;;;;;5070440;28;20048;-65
2022/08/06 03:55:52;;;;;;;5.70;2.15;;;13.00;99.90;;;;;;5070427;28;20040;-65
2022/08/06 03:58:19;;;;;;;4.22;2.42;;;12.90;99.90;;;;;;5071541;28;20036;-65
2022/08/06 04:00:51;;;;;;;3.03;2.13;;;13.00;99.90;;;;;;5071233;28;20036;-65
2022/08/06 04:03:17;;;;;;;2.97;2.08;;;12.80;99.90;;;;;;5071791;28;20041;-65
2022/08/06 04:05:43;;;;;;;2.63;1.98;;;12.70;99.90;;;;;;5071660;28;20045;-67
2022/08/06 04:08:11;;;;;;;2.75;1.85;;;12.70;99.90;;;;;;5071595;28;20036;-65
2022/08/06 04:10:40;;;;;;;3.15;1.80;;;12.70;99.90;;;;;;5071112;28;20093;-65
2022/08/06 04:13:10;;;;;;;4.50;2.17;;;12.70;99.90;;;;;;5074700;28;20076;-65
2022/08/06 04:15:37;;;;;;;4.75;2.00;;;12.80;99.90;;;;;;5074694;28;20040;-65
2022/08/06 04:18:09;;;;;;;4.38;1.77;;;12.80;99.90;;;;;;5075626;28;20047;-65
2022/08/06 04:20:35;;;;;;;2.60;1.90;;;12.80;99.90;;;;;;5075121;28;20528;-65
2022/08/06 04:23:01;;;;;;;3.28;1.40;;;12.80;99.90;;;;;;5075584;28;20044;-65
2022/08/06 04:25:31;;;;;;;2.50;1.60;;;12.80;99.90;;;;;;5075397;28;20490;-65
2022/08/06 04:27:59;;;;;;;1.55;1.35;;;12.80;99.90;;;;;;5075639;28;20070;-65
2022/08/06 04:30:27;;;;;;;4.30;1.70;;;12.80;99.90;;;;;;5075215;28;20043;-65
2022/08/06 04:32:53;;;;;;;1.60;1.50;;;12.80;99.90;;;;;;5075385;28;20117;-65
2022/08/06 04:35:20;;;;;;;3.03;1.70;;;12.80;99.90;;;;;;5075362;28;20544;-65
2022/08/06 04:37:47;;;;;;;2.40;1.63;;;12.70;99.90;;;;;;5075127;28;20044;-65
2022/08/06 04:40:13;;;;;;;1.90;1.58;;;12.80;99.90;;;;;;5074713;28;20557;-65
2022/08/06 04:42:40;;;;;;;2.38;1.70;;;12.80;99.90;;;;;;5075211;28;20116;-65
2022/08/06 04:45:08;;;;;;;5.50;2.40;;;12.90;99.90;;;;;;5075319;28;20158;-65
2022/08/06 04:47:35;;;;;;;2.20;1.60;;;13.00;99.90;;;;;;5074934;28;20036;-65
2022/08/06 04:50:01;;;;;;;5.53;2.47;;;13.10;99.90;;;;;;5074698;28;20040;-65
2022/08/06 04:52:28;;;;;;;3.72;1.65;;;13.20;99.90;;;;;;5074780;28;20079;-65
2022/08/06 04:54:54;;;;;;;3.28;1.92;;;13.30;99.90;;;;;;5073806;28;20040;-65
2022/08/06 04:57:19;;;;;;;2.47;1.50;;;13.40;99.90;;;;;;5075000;28;20036;-65
2022/08/06 04:59:45;;;;;;;6.25;2.00;;;13.50;99.90;;;;;;5074546;28;20048;-65
2022/08/06 05:02:11;;;;;;;3.05;1.90;;;13.60;99.90;;;;;;5074547;28;20115;-65
2022/08/06 05:04:37;;;;;;;3.85;2.08;;;13.80;99.90;;;;;;5074731;28;20074;-65
2022/08/06 05:07:09;;;;;;;2.90;2.30;;;13.70;99.90;;;;;;5074618;28;20482;-65
2022/08/06 05:09:35;;;;;;;4.40;2.22;;;13.70;99.90;;;;;;5074544;28;20040;-65
2022/08/06 05:12:06;;;;;;;6.43;1.98;;;13.80;99.90;;;;;;5074627;28;20475;-65
2022/08/06 05:14:45;;;;;;;2.92;2.10;;;13.90;99.90;;;;;;5074689;28;20421;-65
2022/08/06 05:17:15;;;;;;;5.30;2.03;;;13.80;99.90;;;;;;5074544;28;20044;-65
2022/08/06 05:19:50;;;;;;;2.60;2.03;;;13.80;99.90;;;;;;5074071;28;20048;-66
2022/08/06 05:22:17;;;;;;;3.35;2.15;;;14.00;99.90;;;;;;5074631;28;20169;-65
2022/08/06 05:24:43;;;;;;;2.78;2.00;;;13.80;99.90;;;;;;5074244;28;20055;-65
2022/08/06 05:27:11;;;;;;;6.72;2.80;;;13.90;99.90;;;;;;5074459;28;20029;-65
2022/08/06 05:29:39;;;;;;;2.13;1.92;;;13.80;99.90;;;;;;5073877;28;20516;-65
2022/08/06 05:32:05;;;;;;;3.33;2.17;;;13.80;99.90;;;;;;5074126;28;20075;-65
2022/08/06 05:34:31;;;;;;;2.78;1.80;;;13.90;99.90;;;;;;5074389;28;20064;-65
2022/08/06 05:36:56;;;;;;;4.20;2.03;;;14.00;99.90;;;;;;5074327;28;20153;-65
2022/08/06 05:39:22;;;;;;;3.88;2.05;;;14.10;99.90;;;;;;5073811;28;20044;-65
2022/08/06 05:41:49;;;;;;;3.28;1.73;;;14.20;99.90;;;;;;5074117;28;20041;-65
2022/08/06 05:44:14;;;;;;;3.47;2.30;;;14.30;99.90;;;;;;5074104;28;20394;-65
2022/08/06 05:46:52;;;;;;;2.67;1.70;;;14.40;99.90;;;;;;5073951;28;20043;-65
2022/08/06 05:49:24;;;;;;;3.92;1.90;;;14.40;99.90;;;;;;5073724;28;20040;-65
2022/08/06 05:51:57;;;;;;;2.10;1.23;;;14.30;99.90;;;;;;5073932;28;20082;-66
2022/08/06 05:54:38;;;;;;;2.45;1.10;;;14.40;99.90;;;;;;5073960;28;20076;-65
2022/08/06 05:57:12;;;;;;;3.15;1.23;;;14.70;99.90;;;;;;5072739;28;20453;-65
2022/08/06 05:59:43;;;;;;;3.25;1.33;;;14.90;99.90;;;;;;5073622;28;20045;-65
2022/08/06 06:02:11;;;;;;;1.98;1.25;;;15.20;99.90;;;;;;5107254;22;20055;-69
2022/08/06 06:04:37;;;;;;;2.45;1.13;;;15.40;99.90;;;;;;5093856;28;20046;-68
2022/08/06 06:07:03;;;;;;;5.28;1.25;;;15.90;99.90;;;;;;5093817;28;20409;-69
2022/08/06 06:09:29;;;;;;;1.60;1.05;;;16.20;99.90;;;;;;5091935;28;20059;-69
2022/08/06 06:11:56;;;;;;;4.20;1.45;;;16.80;99.90;;;;;;5093602;28;20051;-69
2022/08/06 06:14:32;;;;;;;4.03;1.10;;;17.10;99.90;;;;;;5093783;28;20044;-69
2022/08/06 06:17:07;;;;;;;1.92;1.00;;;17.20;99.90;;;;;;5093628;28;20127;-69
2022/08/06 06:19:53;;;;;;;1.77;0.90;;;17.10;99.90;;;;;;5093146;28;20044;-69
2022/08/06 06:22:35;;;;;;;4.38;1.30;;;16.80;99.90;;;;;;5092029;28;20043;-69
2022/08/06 06:25:17;;;;;;;1.87;0.97;;;16.70;99.90;;;;;;5092589;28;20067;-70
2022/08/06 06:28:19;;;;;;;2.35;1.15;;;16.60;99.90;;;;;;5092965;28;20697;-69
2022/08/06 06:31:06;;;;;;;3.47;1.40;;;16.40;99.90;;;;;;5093367;28;20063;-69
2022/08/06 06:33:59;;;;;;;1.58;0.70;;;16.30;99.90;;;;;;5093392;28;20046;-69
2022/08/06 06:36:49;;;;;;;1.83;0.77;;;16.30;99.90;;;;;;5081425;28;20059;-69
2022/08/06 06:39:21;;;;;;;1.60;0.75;;;16.00;99.90;;;;;;5091814;28;20092;-69
2022/08/06 06:42:22;;;;;;;4.13;0.90;;;15.90;99.90;;;;;;5092088;28;20040;-69
2022/08/06 06:45:02;;;;;;;2.47;1.23;;;15.80;99.90;;;;;;5092992;28;20040;-69
2022/08/06 06:47:44;;;;;;;2.78;0.77;;;15.70;99.90;;;;;;5093050;28;20520;-69
2022/08/06 06:50:19;;;;;;;2.72;0.90;;;15.70;99.90;;;;;;5093032;28;20067;-69
2022/08/06 06:52:49;;;;;;;2.78;1.25;;;15.80;99.90;;;;;;5093210;28;20043;-70
2022/08/06 06:55:28;;;;;;;3.17;1.10;;;16.00;99.90;;;;;;5092917;28;20036;-69
2022/08/06 06:57:58;;;;;;;1.98;1.17;;;16.50;99.90;;;;;;5093198;28;20058;-69
2022/08/06 07:00:26;;;;;;;2.50;1.13;;;17.00;99.90;;;;;;5095393;28;20516;-70
2022/08/06 07:02:52;;;;;;;3.92;1.20;;;17.60;99.90;;;;;;5093618;28;20036;-69
2022/08/06 07:05:20;;;;;;;1.65;1.00;;;18.10;99.90;;;;;;5092688;28;20047;-70
2022/08/06 07:07:47;;;;;;;1.70;0.70;;;18.70;99.90;;;;;;5092618;28;20032;-69
2022/08/06 07:10:15;;;;;;;1.55;1.00;;;19.00;99.80;;;;;;5092511;28;20050;-69
2022/08/06 07:12:44;;;;;;;2.72;1.23;;;19.40;98.90;;;;;;5092689;28;20115;-69
2022/08/06 07:15:12;;;;;;;0.98;0.80;;;19.70;97.70;;;;;;5090981;28;20512;-70
2022/08/06 07:17:39;;;;;;;2.03;0.73;;;19.80;96.90;;;;;;5091263;28;20493;-70
2022/08/06 07:20:08;;;;;;;1.67;1.00;;;20.00;96.50;;;;;;5091834;28;20119;-70
2022/08/06 07:22:41;;;;;;;4.88;1.10;;;20.10;95.60;;;;;;5090973;28;20040;-70
2022/08/06 07:25:09;;;;;;;2.28;0.65;;;20.30;95.30;;;;;;5092601;28;20142;-70
2022/08/06 07:27:45;;;;;;;2.25;0.80;;;20.50;94.90;;;;;;5092265;28;20493;-70
2022/08/06 07:30:16;;;;;;;5.55;0.93;;;20.80;94.10;;;;;;5092047;28;20048;-70
2022/08/06 07:32:46;;;;;;;2.67;0.70;;;20.90;92.90;;;;;;5092212;28;20071;-70
2022/08/06 07:35:12;;;;;;;2.85;0.63;;;21.10;92.90;;;;;;5092504;28;20044;-70
2022/08/06 07:37:44;;;;;;;1.90;0.90;;;21.20;92.70;;;;;;5092294;28;20458;-71
2022/08/06 07:40:24;;;;;;;3.33;0.90;;;21.20;91.40;;;;;;5091680;28;20032;-70
2022/08/06 07:42:55;;;;;;;1.92;1.00;;;21.30;91.10;;;;;;5092036;28;20047;-69
2022/08/06 07:45:24;;;;;;;1.63;0.70;;;21.60;90.80;;;;;;5091974;28;20036;-70
2022/08/06 07:47:51;;;;;;;2.30;0.63;;;21.50;90.20;;;;;;5091296;28;20040;-68
2022/08/06 07:50:18;;;;;;;1.50;0.50;;;21.60;88.50;;;;;;5091437;28;20039;-68
2022/08/06 07:52:44;;;;;;;5.57;1.00;;;21.80;88.10;;;;;;5091298;28;20437;-68
2022/08/06 07:55:12;;;;;;;1.67;0.60;;;21.90;87.70;;;;;;5091499;28;20466;-68
2022/08/06 07:57:39;;;;;;;3.28;0.68;;;22.30;86.10;;;;;;5074169;28;20124;-67
2022/08/06 08:00:05;;;;;;;5.97;1.23;;;22.20;84.00;;;;;;5091087;28;20115;-67
2022/08/06 08:02:31;;;;;;;3.60;0.75;;;22.20;82.30;;;;;;5091284;28;20028;-68
2022/08/06 08:07:42;;;;;;;2.13;0.73;;;22.40;82.20;;;;;;5092575;28;20076;-69
2022/08/06 08:10:09;;;;;;;3.92;0.60;;;22.10;82.20;;;;;;5091490;28;20108;-69
2022/08/06 08:12:36;;;;;;;3.63;0.82;;;22.30;78.70;;;;;;5089488;28;20032;-69
2022/08/06 08:15:07;;;;;;;2.88;0.60;;;22.40;78.10;;;;;;5090746;28;20032;-69
2022/08/06 08:17:35;;;;;;;4.32;0.47;;;22.50;75.00;;;;;;5089172;28;20516;-69
2022/08/06 08:20:04;;;;;;;4.70;0.45;;;22.80;73.30;;;;;;5090269;28;20036;-69
2022/08/06 08:22:29;;;;;;;1.90;0.40;;;22.60;71.00;;;;;;5091084;28;20036;-69
2022/08/06 08:24:55;;;;;;;1.73;0.30;;;22.40;72.10;;;;;;5091261;28;20400;-68
2022/08/06 08:27:21;;;;;;;1.00;0.35;;;22.10;72.80;;;;;;5091805;28;20044;-68
2022/08/06 08:29:46;;;;;;;0.85;0.30;;;22.40;71.40;;;;;;5091056;28;20032;-68
2022/08/06 08:32:12;;;;;;;2.30;0.40;;;22.60;70.90;;;;;;5091515;28;20044;-70
2022/08/06 08:34:38;;;;;;;3.25;0.50;;;22.50;70.20;;;;;;5091502;28;20093;-73
2022/08/06 08:37:03;;;;;;;3.63;0.38;;;22.60;70.50;;;;;;5090519;28;20050;-72
2022/08/06 08:39:30;;;;;;;1.75;0.52;;;22.80;69.20;;;;;;5089806;28;20508;-73
2022/08/06 08:42:06;;;;;;;1.90;0.70;;;22.80;68.80;;;;;;5091657;28;20032;-73
2022/08/06 08:44:33;;;;;;;0.88;0.22;;;22.90;66.50;;;;;;5090221;28;20036;-72
2022/08/06 08:47:00;;;;;;;2.00;0.73;;;22.70;66.00;;;;;;5091586;28;20054;-73
2022/08/06 08:49:37;;;;;;;1.48;0.38;;;23.00;66.80;;;;;;5089867;28;20051;-72
2022/08/06 08:52:04;;;;;;;1.88;0.60;;;22.80;65.00;;;;;;5090272;28;20036;-72
2022/08/06 08:54:33;;;;;;;2.65;0.57;;;23.10;65.50;;;;;;5091390;28;20417;-72
2022/08/06 08:56:59;;;;;;;1.88;0.60;;;23.10;63.90;;;;;;5090400;28;20131;-72
2022/08/06 08:59:25;;;;;;;2.72;0.40;;;23.40;63.90;;;;;;5094323;28;20120;-73
2022/08/06 09:01:52;;;;;;;3.83;0.80;;;23.40;63.10;;;;;;5094969;28;20071;-72
2022/08/06 09:04:18;;;;;;;1.95;0.40;;;23.00;64.00;;;;;;5093782;28;20669;-72
2022/08/06 09:06:44;;;;;;;2.22;0.50;;;22.50;64.50;;;;;;5093674;28;20078;-73
2022/08/06 09:09:10;;;;;;;2.53;0.65;;;21.90;65.90;;;;;;5094983;28;20082;-73
2022/08/06 09:11:37;;;;;;;2.75;0.75;;;21.60;67.70;;;;;;5093435;28;20048;-72
2022/08/06 09:14:08;;;;;;;3.15;1.17;;;21.30;69.60;;;;;;5093911;28;20059;-72
2022/08/06 09:16:35;;;;;;;4.07;1.38;;;20.80;69.60;;;;;;5094928;28;20044;-72
2022/08/06 09:19:02;;;;;;;2.03;0.77;;;20.50;71.20;;;;;;5093431;28;20048;-72
2022/08/06 09:21:28;;;;;;;2.05;0.70;;;20.00;74.50;;;;;;5094563;28;20055;-72
2022/08/06 09:23:55;;;;;;;2.38;0.80;;;19.70;77.60;;;;;;5093758;28;20032;-72
2022/08/06 09:26:20;;;;;;;1.27;0.60;;;19.30;80.30;;;;;;5094742;28;20401;-73
2022/08/06 09:28:46;;;;;;;3.20;0.70;;;19.00;84.40;;;;;;5094625;28;20036;-72
2022/08/06 09:31:17;;;;;;;8.77;2.92;;;18.80;87.00;;;;;;5092962;28;20048;-72
2022/08/06 09:34:00;;;;;;;3.45;1.20;;;18.80;90.40;;;;;;5093096;28;20132;-72
2022/08/06 09:36:27;;;;;;;2.13;1.15;;;18.70;91.70;;;;;;5093526;28;20059;-72
2022/08/06 09:38:57;;;;;;;2.92;1.17;;;18.60;92.20;;;;;;5094481;28;20036;-72
2022/08/06 09:41:25;;;;;;;3.63;1.00;;;18.70;92.20;;;;;;5094059;28;20036;-72
2022/08/06 09:43:53;;;;;;;4.32;0.95;;;18.70;92.30;;;;;;5094351;28;20040;-73
2022/08/06 09:46:42;;;;;;;4.88;1.00;;;18.70;92.00;;;;;;5092938;28;20040;-72
2022/08/06 09:49:10;;;;;;;3.38;1.33;;;18.70;91.30;;;;;;5094307;28;20124;-72
2022/08/06 09:51:37;;;;;;;2.10;1.00;;;18.80;91.80;;;;;;5094012;28;20048;-72
2022/08/06 09:54:05;;;;;;;1.85;0.90;;;18.80;91.70;;;;;;5092839;28;20048;-72
2022/08/06 09:56:32;;;;;;;2.70;1.00;;;18.90;92.60;;;;;;5093970;28;20036;-72
2022/08/06 09:58:59;;;;;;;3.58;0.90;;;19.00;92.30;;;;;;5094186;28;20065;-72
2022/08/06 10:01:27;;;;;;;2.33;1.08;;;19.10;93.00;;;;;;5093659;28;20044;-72
2022/08/06 10:03:56;;;;;;;2.33;1.30;;;19.20;92.90;;;;;;5092634;28;20047;-72
2022/08/06 10:06:23;;;;;;;3.58;1.17;;;19.30;91.60;;;;;;5093821;28;20516;-72
2022/08/06 10:08:50;;;;;;;2.33;1.00;;;19.60;90.90;;;;;;5092297;28;20119;-72
2022/08/06 10:11:33;;;;;;;5.95;1.38;;;19.90;90.10;;;;;;5091471;28;20056;-72
2022/08/06 10:13:58;;;;;;;1.95;1.35;;;20.20;88.70;;;;;;5092605;28;20081;-72
2022/08/06 10:16:26;;;;;;;2.97;1.40;;;20.60;88.30;;;;;;5092366;28;20075;-72
2022/08/06 10:18:53;;;;;;;2.25;1.20;;;20.70;85.20;;;;;;5093606;28;20043;-72
2022/08/06 10:21:22;;;;;;;2.67;1.33;;;20.90;81.00;;;;;;5092075;28;20051;-72
2022/08/06 10:23:52;;;;;;;4.65;1.30;;;20.80;76.60;;;;;;5092548;28;20108;-72
2022/08/06 10:26:25;;;;;;;4.88;1.58;;;21.00;76.10;;;;;;5092271;28;20036;-72
2022/08/06 10:28:52;;;;;;;4.00;1.40;;;20.70;75.50;;;;;;5093648;28;20092;-72
2022/08/06 10:31:19;;;;;;;3.35;1.67;;;20.70;76.40;;;;;;5091830;28;20051;-72
2022/08/06 10:33:50;;;;;;;3.70;1.23;;;20.80;76.00;;;;;;5093336;28;20489;-72
2022/08/06 10:36:20;;;;;;;2.38;1.40;;;21.00;76.70;;;;;;5092253;28;20402;-72
2022/08/06 10:38:50;;;;;;;1.70;1.10;;;20.90;76.60;;;;;;5092012;28;20055;-72
2022/08/06 10:41:17;;;;;;;4.35;1.63;;;20.80;76.00;;;;;;5091770;28;20195;-72
2022/08/06 10:43:43;;;;;;;3.95;1.75;;;21.10;74.90;;;;;;5091969;28;20044;-72
2022/08/06 10:46:17;;;;;;;2.95;1.70;;;20.60;70.60;;;;;;5091865;28;20125;-72
2022/08/06 10:48:46;;;;;;;3.20;1.80;;;20.80;71.40;;;;;;5091890;28;20048;-72
2022/08/06 10:51:12;;;;;;;3.60;1.33;;;20.80;69.00;;;;;;5092780;28;20086;-72
2022/08/06 10:53:43;;;;;;;4.50;1.50;;;21.10;69.50;;;;;;5091930;28;20135;-72
2022/08/06 10:56:11;;;;;;;3.85;2.10;;;21.20;69.10;;;;;;5093006;28;20466;-72
2022/08/06 10:58:38;;;;;;;5.32;1.67;;;21.30;67.40;;;;;;5092894;28;20123;-72
2022/08/06 11:01:21;;;;;;;4.25;1.67;;;21.20;67.40;;;;;;5092240;28;20432;-72
2022/08/06 11:04:25;;;;;;;2.15;1.65;;;21.00;67.90;;;;;;5091555;28;20040;-73
2022/08/06 11:06:57;;;;;;;4.18;1.77;;;20.90;67.70;;;;;;5047056;28;20040;-73
2022/08/06 11:09:47;;;;;;;2.75;1.35;;;20.90;66.90;;;;;;5091348;28;20440;-73
2022/08/06 11:12:46;;;;;;;2.47;1.50;;;20.90;63.90;;;;;;5091229;28;20122;-73
2022/08/06 11:15:12;;;;;;;2.78;1.60;;;20.90;65.90;;;;;;5063446;28;20416;-73
2022/08/06 11:17:45;;;;;;;2.08;1.42;;;20.70;63.50;;;;;;5091362;28;20118;-73
2022/08/06 11:20:33;;;;;;;3.80;1.85;;;20.60;60.80;;;;;;5091122;28;20036;-74
2022/08/06 11:23:00;;;;;;;3.92;1.80;;;20.50;61.10;;;;;;5082421;28;20505;-72
2022/08/06 11:25:40;;;;;;;3.85;1.88;;;20.60;63.90;;;;;;5091187;28;20068;-72
2022/08/06 11:28:17;;;;;;;2.67;1.50;;;20.70;64.50;;;;;;5090929;28;20044;-72
2022/08/06 11:30:51;;;;;;;3.42;1.70;;;20.80;65.80;;;;;;5090921;28;20036;-72
2022/08/06 11:33:47;;;;;;;2.78;2.03;;;21.00;66.30;;;;;;5092154;28;20044;-74
2022/08/06 11:36:25;;;;;;;4.72;1.92;;;21.00;64.80;;;;;;5090664;28;20405;-72
2022/08/06 11:38:53;;;;;;;3.67;1.90;;;21.20;64.30;;;;;;5092076;28;20036;-73
2022/08/06 11:41:21;;;;;;;2.40;1.77;;;21.20;63.30;;;;;;5090457;28;20073;-73
2022/08/06 11:43:53;;;;;;;3.40;1.70;;;21.50;63.70;;;;;;5090914;28;20059;-73
2022/08/06 11:46:27;;;;;;;3.58;1.73;;;21.60;63.20;;;;;;5092095;28;20421;-73
2022/08/06 11:48:58;;;;;;;3.45;1.70;;;21.60;61.20;;;;;;5091082;28;20088;-73
2022/08/06 11:51:53;;;;;;;2.75;2.03;;;21.50;59.00;;;;;;5090409;28;20050;-73
2022/08/06 11:54:18;;;;;;;5.03;2.67;;;21.30;59.40;;;;;;5090808;28;20044;-73
2022/08/06 11:57:06;;;;;;;2.72;2.20;;;21.40;60.90;;;;;;5090661;28;20055;-73
2022/08/06 11:59:37;;;;;;;3.33;2.03;;;21.40;59.80;;;;;;5077984;28;20052;-73
2022/08/06 12:02:10;;;;;;;5.03;2.30;;;21.30;59.10;;;;;;5109637;22;20048;-73
2022/08/06 12:04:35;;;;;;;2.60;2.22;;;21.40;58.30;;;;;;5070577;28;20169;-74
2022/08/06 12:07:21;;;;;;;4.95;2.10;;;21.30;58.30;;;;;;5070519;28;20520;-73
2022/08/06 12:10:11;;;;;;;3.70;1.98;;;21.40;58.80;;;;;;5069423;28;20036;-71
2022/08/06 12:12:45;;;;;;;2.53;2.03;;;21.30;57.30;;;;;;5069882;28;20029;-72
2022/08/06 12:15:19;;;;;;;3.30;2.08;;;21.10;55.80;;;;;;5071618;28;20082;-72
2022/08/06 12:17:53;;;;;;;5.30;2.38;;;21.40;59.00;;;;;;5071535;28;20119;-72
2022/08/06 12:20:43;;;;;;;3.55;2.40;;;21.10;57.50;;;;;;5071112;28;20109;-72
2022/08/06 12:23:10;;;;;;;4.45;2.78;;;21.20;62.60;;;;;;5071364;28;20375;-72
2022/08/06 12:25:38;;;;;;;5.90;3.05;;;21.30;62.10;;;;;;5071293;28;20486;-72
2022/08/06 12:28:05;;;;;;;4.20;2.58;;;21.40;60.70;;;;;;5071529;28;20040;-71
2022/08/06 12:30:59;;;;;;;3.22;2.85;;;21.50;59.40;;;;;;5071118;28;20097;-72
2022/08/06 12:33:25;;;;;;;5.63;3.22;;;21.50;61.70;;;;;;5055054;28;20056;-71
2022/08/06 12:35:53;;;;;;;6.63;3.20;;;21.50;61.30;;;;;;5074130;28;20553;-71
2022/08/06 12:38:21;;;;;;;4.20;3.33;;;21.30;60.10;;;;;;5075422;28;20039;-71
2022/08/06 12:40:56;;;;;;;3.47;3.08;;;21.40;61.70;;;;;;5073609;28;20044;-71
2022/08/06 12:43:21;;;;;;;4.70;3.25;;;21.20;60.10;;;;;;5075134;28;20040;-71
2022/08/06 12:45:55;;;;;;;4.22;3.05;;;21.00;60.10;;;;;;5075342;28;20040;-72
2022/08/06 12:48:20;;;;;;;5.05;4.03;;;21.20;60.50;;;;;;5075295;28;20425;-72
2022/08/06 12:50:46;;;;;;;6.47;3.60;;;21.30;60.90;;;;;;5074836;28;20173;-71
2022/08/06 12:53:17;;;;;;;6.85;4.18;;;21.40;60.90;;;;;;5075018;28;20119;-71
2022/08/06 12:56:03;;;;;;;4.30;3.58;;;21.40;58.70;;;;;;5073633;28;20079;-72
2022/08/06 12:58:38;;;;;;;4.50;3.58;;;21.30;57.60;;;;;;5073676;28;20101;-71
2022/08/06 13:01:05;;;;;;;4.72;3.95;;;21.30;58.30;;;;;;5074448;28;20510;-72
2022/08/06 13:03:34;;;;;;;3.67;2.97;;;21.20;57.20;;;;;;5074704;28;20036;-72
2022/08/06 13:06:03;;;;;;;3.75;3.08;;;21.30;56.70;;;;;;5074746;28;20040;-71
2022/08/06 13:08:29;;;;;;;4.10;2.92;;;21.30;56.50;;;;;;5075017;28;20170;-71